sensor_id;sensor_type;location;lat;lon;timestamp;temperature;humidity
16273;DHT22;8244;50.044;9.006;2022-11-20T00:02:14;2.70;99.90
16273;DHT22;8244;50.044;9.006;2022-11-20T00:07:16;2.80;99.90
16273;DHT22;8244;50.044;9.006;2022-11-20T00:12:19;2.80;99.90
16273;DHT22;8244;50.044;9.006;2022-11-20T00:17:21;2.70;99.90
16273;DHT22;8244;50.044;9.006;2022-11-20T00:22:23;2.70;99.90
16273;DHT22;8244;50.044;9.006;2022-11-20T00:27:26;2.70;99.90
16273;DHT22;8244;50.044;9.006;2022-11-20T00:32:27;2.70;99.90
16273;DHT22;8244;50.044;9.006;2022-11-20T00:37:29;2.70;99.90
16273;DHT22;8244;50.044;9.006;2022-11-20T00:42:32;2.70;99.90
16273;DHT22;8244;50.044;9.006;2022-11-20T00:47:34;2.70;99.90
16273;DHT22;8244;50.044;9.006;2022-11-20T00:52:35;2.70;99.90
16273;DHT22;8244;50.044;9.006;2022-11-20T00:57:38;2.70;99.90
16273;DHT22;8244;50.044;9.006;2022-11-20T01:02:40;2.70;99.90
16273;DHT22;8244;50.044;9.006;2022-11-20T01:07:42;2.70;99.90
16273;DHT22;8244;50.044;9.006;2022-11-20T01:12:45;2.70;99.90
16273;DHT22;8244;50.044;9.006;2022-11-20T01:18:07;2.70;99.90
16273;DHT22;8244;50.044;9.006;2022-11-20T01:23:09;2.70;99.90
16273;DHT22;8244;50.044;9.006;2022-11-20T01:28:12;2.60;99.90
16273;DHT22;8244;50.044;9.006;2022-11-20T01:33:13;2.60;99.90
16273;DHT22;8244;50.044;9.006;2022-11-20T01:38:15;2.60;99.90
16273;DHT22;8244;50.044;9.006;2022-11-20T01:43:19;2.60;99.90
16273;DHT22;8244;50.044;9.006;2022-11-20T01:48:23;2.60;99.90
16273;DHT22;8244;50.044;9.006;2022-11-20T01:53:30;2.60;99.90
16273;DHT22;8244;50.044;9.006;2022-11-20T01:58:38;2.60;99.90
16273;DHT22;8244;50.044;9.006;2022-11-20T02:03:41;2.60;99.90
16273;DHT22;8244;50.044;9.006;2022-11-20T02:08:45;2.50;99.90
16273;DHT22;8244;50.044;9.006;2022-11-20T02:13:48;2.60;99.90
16273;DHT22;8244;50.044;9.006;2022-11-20T02:18:51;2.60;99.90
16273;DHT22;8244;50.044;9.006;2022-11-20T02:24:04;2.60;99.90
16273;DHT22;8244;50.044;9.006;2022-11-20T02:29:07;2.60;99.90
16273;DHT22;8244;50.044;9.006;2022-11-20T02:34:09;2.60;99.90
16273;DHT22;8244;50.044;9.006;2022-11-20T02:39:13;2.70;99.90
16273;DHT22;8244;50.044;9.006;2022-11-20T02:44:18;2.70;99.90
16273;DHT22;8244;50.044;9.006;2022-11-20T02:49:20;2.70;99.90
16273;DHT22;8244;50.044;9.006;2022-11-20T02:54:23;2.70;99.90
16273;DHT22;8244;50.044;9.006;2022-11-20T02:59:25;2.60;99.90
16273;DHT22;8244;50.044;9.006;2022-11-20T03:04:26;2.70;99.90
16273;DHT22;8244;50.044;9.006;2022-11-20T03:09:29;2.70;99.90
16273;DHT22;8244;50.044;9.006;2022-11-20T03:14:31;2.70;99.90
16273;DHT22;8244;50.044;9.006;2022-11-20T03:19:33;2.70;99.90
16273;DHT22;8244;50.044;9.006;2022-11-20T03:24:36;2.70;99.90
16273;DHT22;8244;50.044;9.006;2022-11-20T03:29:38;2.70;99.90
16273;DHT22;8244;50.044;9.006;2022-11-20T03:34:39;2.80;99.90
16273;DHT22;8244;50.044;9.006;2022-11-20T03:39:42;2.80;99.90
16273;DHT22;8244;50.044;9.006;2022-11-20T03:44:44;2.80;99.90
16273;DHT22;8244;50.044;9.006;2022-11-20T03:49:46;2.80;99.90
16273;DHT22;8244;50.044;9.006;2022-11-20T03:54:49;2.80;99.90
16273;DHT22;8244;50.044;9.006;2022-11-20T03:59:50;2.80;99.90
16273;DHT22;8244;50.044;9.006;2022-11-20T04:04:52;2.90;99.90
16273;DHT22;8244;50.044;9.006;2022-11-20T04:09:55;3.00;99.90
16273;DHT22;8244;50.044;9.006;2022-11-20T04:14:56;3.00;99.90
16273;DHT22;8244;50.044;9.006;2022-11-20T04:19:58;3.00;99.90
16273;DHT22;8244;50.044;9.006;2022-11-20T04:25:01;3.00;99.90
16273;DHT22;8244;50.044;9.006;2022-11-20T04:30:03;3.10;99.90
16273;DHT22;8244;50.044;9.006;2022-11-20T04:35:06;3.10;99.90
16273;DHT22;8244;50.044;9.006;2022-11-20T04:40:10;3.10;99.90
16273;DHT22;8244;50.044;9.006;2022-11-20T04:45:11;3.10;99.90
16273;DHT22;8244;50.044;9.006;2022-11-20T04:50:13;3.10;99.90
16273;DHT22;8244;50.044;9.006;2022-11-20T04:55:16;3.20;99.90
16273;DHT22;8244;50.044;9.006;2022-11-20T05:00:18;3.10;99.90
16273;DHT22;8244;50.044;9.006;2022-11-20T05:05:20;3.10;99.90
16273;DHT22;8244;50.044;9.006;2022-11-20T05:10:23;3.10;99.90
16273;DHT22;8244;50.044;9.006;2022-11-20T05:15:25;3.10;99.90
16273;DHT22;8244;50.044;9.006;2022-11-20T05:20:27;3.10;99.90
16273;DHT22;8244;50.044;9.006;2022-11-20T05:25:30;3.10;99.90
16273;DHT22;8244;50.044;9.006;2022-11-20T05:30:31;3.10;99.90
16273;DHT22;8244;50.044;9.006;2022-11-20T05:35:33;3.10;99.90
16273;DHT22;8244;50.044;9.006;2022-11-20T05:40:36;3.10;99.90
16273;DHT22;8244;50.044;9.006;2022-11-20T05:45:38;3.20;99.90
16273;DHT22;8244;50.044;9.006;2022-11-20T05:50:39;3.20;99.90
16273;DHT22;8244;50.044;9.006;2022-11-20T05:55:42;3.20;99.90
16273;DHT22;8244;50.044;9.006;2022-11-20T06:00:44;3.20;99.90
16273;DHT22;8244;50.044;9.006;2022-11-20T06:05:46;3.20;99.90
16273;DHT22;8244;50.044;9.006;2022-11-20T06:10:49;3.20;99.90
16273;DHT22;8244;50.044;9.006;2022-11-20T06:15:51;3.20;99.90
16273;DHT22;8244;50.044;9.006;2022-11-20T06:20:59;3.20;99.90
16273;DHT22;8244;50.044;9.006;2022-11-20T06:26:03;3.30;99.90
16273;DHT22;8244;50.044;9.006;2022-11-20T06:31:06;3.30;99.90
16273;DHT22;8244;50.044;9.006;2022-11-20T06:36:09;3.30;99.90
16273;DHT22;8244;50.044;9.006;2022-11-20T06:41:14;3.30;99.90
16273;DHT22;8244;50.044;9.006;2022-11-20T06:46:17;3.30;99.90
16273;DHT22;8244;50.044;9.006;2022-11-20T06:51:19;3.40;99.90
16273;DHT22;8244;50.044;9.006;2022-11-20T06:56:23;3.40;99.90
16273;DHT22;8244;50.044;9.006;2022-11-20T07:01:24;3.40;99.90
16273;DHT22;8244;50.044;9.006;2022-11-20T07:06:26;3.40;99.90
16273;DHT22;8244;50.044;9.006;2022-11-20T07:11:29;3.50;99.90
16273;DHT22;8244;50.044;9.006;2022-11-20T07:16:31;3.50;99.90
16273;DHT22;8244;50.044;9.006;2022-11-20T07:21:32;3.50;99.90
16273;DHT22;8244;50.044;9.006;2022-11-20T07:26:35;3.50;99.90
16273;DHT22;8244;50.044;9.006;2022-11-20T07:31:37;3.50;99.90
16273;DHT22;8244;50.044;9.006;2022-11-20T07:36:39;3.50;99.90
16273;DHT22;8244;50.044;9.006;2022-11-20T07:41:42;3.40;99.90
16273;DHT22;8244;50.044;9.006;2022-11-20T07:46:44;3.40;99.90
16273;DHT22;8244;50.044;9.006;2022-11-20T07:51:45;3.40;99.90
16273;DHT22;8244;50.044;9.006;2022-11-20T07:56:49;3.40;99.90
16273;DHT22;8244;50.044;9.006;2022-11-20T08:01:51;3.40;99.90
16273;DHT22;8244;50.044;9.006;2022-11-20T08:06:52;3.40;99.90
16273;DHT22;8244;50.044;9.006;2022-11-20T08:11:55;3.40;99.90
16273;DHT22;8244;50.044;9.006;2022-11-20T08:17:15;3.40;99.90
16273;DHT22;8244;50.044;9.006;2022-11-20T08:22:16;3.50;99.90
16273;DHT22;8244;50.044;9.006;2022-11-20T08:27:19;3.60;99.90
16273;DHT22;8244;50.044;9.006;2022-11-20T08:32:21;3.70;99.90
16273;DHT22;8244;50.044;9.006;2022-11-20T08:37:23;3.80;99.90
16273;DHT22;8244;50.044;9.006;2022-11-20T08:42:26;3.90;99.90
16273;DHT22;8244;50.044;9.006;2022-11-20T08:47:27;3.90;99.90
16273;DHT22;8244;50.044;9.006;2022-11-20T08:52:29;4.00;99.90
16273;DHT22;8244;50.044;9.006;2022-11-20T08:57:32;4.00;99.90
16273;DHT22;8244;50.044;9.006;2022-11-20T09:02:34;4.10;99.90
16273;DHT22;8244;50.044;9.006;2022-11-20T09:07:36;4.20;99.90
16273;DHT22;8244;50.044;9.006;2022-11-20T09:12:39;4.30;99.90
16273;DHT22;8244;50.044;9.006;2022-11-20T09:17:40;4.30;99.90
16273;DHT22;8244;50.044;9.006;2022-11-20T09:22:42;4.40;99.90
16273;DHT22;8244;50.044;9.006;2022-11-20T09:27:45;4.50;99.90
16273;DHT22;8244;50.044;9.006;2022-11-20T09:32:47;4.50;99.90
16273;DHT22;8244;50.044;9.006;2022-11-20T09:37:49;4.70;99.90
16273;DHT22;8244;50.044;9.006;2022-11-20T09:42:56;4.80;99.90
16273;DHT22;8244;50.044;9.006;2022-11-20T09:48:13;4.80;99.90
16273;DHT22;8244;50.044;9.006;2022-11-20T09:53:26;4.90;99.90
16273;DHT22;8244;50.044;9.006;2022-11-20T09:58:33;4.90;99.90
16273;DHT22;8244;50.044;9.006;2022-11-20T10:03:42;4.90;99.90
16273;DHT22;8244;50.044;9.006;2022-11-20T10:08:51;4.90;99.90
16273;DHT22;8244;50.044;9.006;2022-11-20T10:14:05;4.90;99.90
16273;DHT22;8244;50.044;9.006;2022-11-20T10:19:19;5.10;99.90
16273;DHT22;8244;50.044;9.006;2022-11-20T10:24:35;5.30;99.90
16273;DHT22;8244;50.044;9.006;2022-11-20T10:29:45;5.50;99.90
16273;DHT22;8244;50.044;9.006;2022-11-20T10:34:51;5.60;99.90
16273;DHT22;8244;50.044;9.006;2022-11-20T10:39:58;5.80;99.90
16273;DHT22;8244;50.044;9.006;2022-11-20T10:45:13;5.80;99.90
16273;DHT22;8244;50.044;9.006;2022-11-20T10:50:19;5.90;99.90
16273;DHT22;8244;50.044;9.006;2022-11-20T10:55:29;5.90;99.90
16273;DHT22;8244;50.044;9.006;2022-11-20T11:00:34;6.00;99.90
16273;DHT22;8244;50.044;9.006;2022-11-20T11:05:39;6.10;99.90
16273;DHT22;8244;50.044;9.006;2022-11-20T11:10:45;6.00;99.90
16273;DHT22;8244;50.044;9.006;2022-11-20T11:15:50;6.00;99.90
16273;DHT22;8244;50.044;9.006;2022-11-20T11:20:53;6.10;99.90
16273;DHT22;8244;50.044;9.006;2022-11-20T11:25:59;6.00;99.90
16273;DHT22;8244;50.044;9.006;2022-11-20T11:31:02;6.10;99.90
16273;DHT22;8244;50.044;9.006;2022-11-20T11:36:16;6.20;99.90
16273;DHT22;8244;50.044;9.006;2022-11-20T11:41:23;6.20;99.90
16273;DHT22;8244;50.044;9.006;2022-11-20T11:46:33;6.20;99.90
16273;DHT22;8244;50.044;9.006;2022-11-20T11:51:40;6.30;99.90
16273;DHT22;8244;50.044;9.006;2022-11-20T11:56:43;6.30;99.90
16273;DHT22;8244;50.044;9.006;2022-11-20T12:01:51;6.30;99.90
16273;DHT22;8244;50.044;9.006;2022-11-20T12:07:01;6.30;99.90
16273;DHT22;8244;50.044;9.006;2022-11-20T12:12:09;6.30;99.90
16273;DHT22;8244;50.044;9.006;2022-11-20T12:17:14;6.30;99.90
16273;DHT22;8244;50.044;9.006;2022-11-20T12:22:22;6.30;99.90
16273;DHT22;8244;50.044;9.006;2022-11-20T12:27:54;6.30;99.90
16273;DHT22;8244;50.044;9.006;2022-11-20T12:33:20;6.40;99.90
16273;DHT22;8244;50.044;9.006;2022-11-20T12:38:45;6.40;99.90
16273;DHT22;8244;50.044;9.006;2022-11-20T12:44:04;6.40;99.90
16273;DHT22;8244;50.044;9.006;2022-11-20T12:49:30;6.40;99.90
16273;DHT22;8244;50.044;9.006;2022-11-20T12:54:57;6.40;99.90
16273;DHT22;8244;50.044;9.006;2022-11-20T13:00:09;6.30;99.90
16273;DHT22;8244;50.044;9.006;2022-11-20T13:05:20;6.20;99.90
16273;DHT22;8244;50.044;9.006;2022-11-20T13:10:31;6.30;99.90
16273;DHT22;8244;50.044;9.006;2022-11-20T13:15:43;6.30;99.90
16273;DHT22;8244;50.044;9.006;2022-11-20T13:20:48;6.40;99.90
16273;DHT22;8244;50.044;9.006;2022-11-20T13:26:01;6.40;99.90
16273;DHT22;8244;50.044;9.006;2022-11-20T13:31:04;6.50;99.90
16273;DHT22;8244;50.044;9.006;2022-11-20T13:36:23;6.50;99.90
16273;DHT22;8244;50.044;9.006;2022-11-20T13:41:28;6.50;99.90
16273;DHT22;8244;50.044;9.006;2022-11-20T13:46:37;6.50;99.90
16273;DHT22;8244;50.044;9.006;2022-11-20T13:51:43;6.40;99.90
16273;DHT22;8244;50.044;9.006;2022-11-20T13:56:59;6.30;99.90
16273;DHT22;8244;50.044;9.006;2022-11-20T14:02:10;6.20;99.90
16273;DHT22;8244;50.044;9.006;2022-11-20T14:07:14;6.30;99.90
16273;DHT22;8244;50.044;9.006;2022-11-20T14:12:19;6.40;99.90
16273;DHT22;8244;50.044;9.006;2022-11-20T14:17:23;6.40;99.90
16273;DHT22;8244;50.044;9.006;2022-11-20T14:22:27;6.30;99.90
16273;DHT22;8244;50.044;9.006;2022-11-20T14:27:29;6.30;99.90
16273;DHT22;8244;50.044;9.006;2022-11-20T14:32:35;6.40;99.90
16273;DHT22;8244;50.044;9.006;2022-11-20T14:37:39;6.30;99.90
16273;DHT22;8244;50.044;9.006;2022-11-20T14:42:43;6.20;99.90
16273;DHT22;8244;50.044;9.006;2022-11-20T14:47:45;6.10;99.90
16273;DHT22;8244;50.044;9.006;2022-11-20T14:52:53;6.20;99.90
16273;DHT22;8244;50.044;9.006;2022-11-20T14:57:56;6.10;99.90
16273;DHT22;8244;50.044;9.006;2022-11-20T15:02:58;6.10;99.90
16273;DHT22;8244;50.044;9.006;2022-11-20T15:08:08;6.00;99.90
16273;DHT22;8244;50.044;9.006;2022-11-20T15:13:12;6.00;99.90
16273;DHT22;8244;50.044;9.006;2022-11-20T15:18:16;6.00;99.90
16273;DHT22;8244;50.044;9.006;2022-11-20T15:23:20;5.90;99.90
16273;DHT22;8244;50.044;9.006;2022-11-20T15:28:29;5.80;99.90
16273;DHT22;8244;50.044;9.006;2022-11-20T15:33:32;5.70;99.90
16273;DHT22;8244;50.044;9.006;2022-11-20T15:38:36;5.70;99.90
16273;DHT22;8244;50.044;9.006;2022-11-20T15:43:37;5.60;99.90
16273;DHT22;8244;50.044;9.006;2022-11-20T15:48:42;5.50;99.90
16273;DHT22;8244;50.044;9.006;2022-11-20T15:53:45;5.50;99.90
16273;DHT22;8244;50.044;9.006;2022-11-20T15:58:47;5.50;99.90
16273;DHT22;8244;50.044;9.006;2022-11-20T16:03:49;5.50;99.90
16273;DHT22;8244;50.044;9.006;2022-11-20T16:08:52;5.50;99.90
16273;DHT22;8244;50.044;9.006;2022-11-20T16:13:54;5.50;99.90
16273;DHT22;8244;50.044;9.006;2022-11-20T16:19:14;5.50;99.90
16273;DHT22;8244;50.044;9.006;2022-11-20T16:24:17;5.50;99.90
16273;DHT22;8244;50.044;9.006;2022-11-20T16:29:19;5.40;99.90
16273;DHT22;8244;50.044;9.006;2022-11-20T16:34:20;5.40;99.90
16273;DHT22;8244;50.044;9.006;2022-11-20T16:39:24;5.40;99.90
16273;DHT22;8244;50.044;9.006;2022-11-20T16:44:26;5.40;99.90
16273;DHT22;8244;50.044;9.006;2022-11-20T16:49:28;5.40;99.90
16273;DHT22;8244;50.044;9.006;2022-11-20T16:54:31;5.40;99.90
16273;DHT22;8244;50.044;9.006;2022-11-20T16:59:32;5.30;99.90
16273;DHT22;8244;50.044;9.006;2022-11-20T17:04:34;5.40;99.90
16273;DHT22;8244;50.044;9.006;2022-11-20T17:09:37;5.40;99.90
16273;DHT22;8244;50.044;9.006;2022-11-20T17:14:39;5.40;99.90
16273;DHT22;8244;50.044;9.006;2022-11-20T17:19:41;5.40;99.90
16273;DHT22;8244;50.044;9.006;2022-11-20T17:24:44;5.40;99.90
16273;DHT22;8244;50.044;9.006;2022-11-20T17:29:45;5.40;99.90
16273;DHT22;8244;50.044;9.006;2022-11-20T17:34:47;5.40;99.90
16273;DHT22;8244;50.044;9.006;2022-11-20T17:39:50;5.50;99.90
16273;DHT22;8244;50.044;9.006;2022-11-20T17:44:52;5.50;99.90
16273;DHT22;8244;50.044;9.006;2022-11-20T17:49:53;5.50;99.90
16273;DHT22;8244;50.044;9.006;2022-11-20T17:54:56;5.50;99.90
16273;DHT22;8244;50.044;9.006;2022-11-20T17:59:58;5.50;99.90
16273;DHT22;8244;50.044;9.006;2022-11-20T18:05:00;5.60;99.90
16273;DHT22;8244;50.044;9.006;2022-11-20T18:10:03;5.60;99.90
16273;DHT22;8244;50.044;9.006;2022-11-20T18:15:07;5.60;99.90
16273;DHT22;8244;50.044;9.006;2022-11-20T18:20:09;5.60;99.90
16273;DHT22;8244;50.044;9.006;2022-11-20T18:25:12;5.60;99.90
16273;DHT22;8244;50.044;9.006;2022-11-20T18:30:14;5.60;99.90
16273;DHT22;8244;50.044;9.006;2022-11-20T18:35:16;5.60;99.90
16273;DHT22;8244;50.044;9.006;2022-11-20T18:40:19;5.70;99.90
16273;DHT22;8244;50.044;9.006;2022-11-20T18:45:21;5.70;99.90
16273;DHT22;8244;50.044;9.006;2022-11-20T18:50:22;5.70;99.90
16273;DHT22;8244;50.044;9.006;2022-11-20T18:55:25;5.70;99.90
16273;DHT22;8244;50.044;9.006;2022-11-20T19:00:27;5.70;99.90
16273;DHT22;8244;50.044;9.006;2022-11-20T19:05:28;5.80;99.90
16273;DHT22;8244;50.044;9.006;2022-11-20T19:10:32;5.80;99.90
16273;DHT22;8244;50.044;9.006;2022-11-20T19:15:33;5.80;99.90
16273;DHT22;8244;50.044;9.006;2022-11-20T19:20:37;5.80;99.90
16273;DHT22;8244;50.044;9.006;2022-11-20T19:25:40;5.80;99.90
16273;DHT22;8244;50.044;9.006;2022-11-20T19:30:41;5.80;99.90
16273;DHT22;8244;50.044;9.006;2022-11-20T19:35:43;5.80;99.90
16273;DHT22;8244;50.044;9.006;2022-11-20T19:40:46;5.80;99.90
16273;DHT22;8244;50.044;9.006;2022-11-20T19:45:48;5.80;99.90
16273;DHT22;8244;50.044;9.006;2022-11-20T19:50:49;5.90;99.90
16273;DHT22;8244;50.044;9.006;2022-11-20T19:55:56;5.90;99.90
16273;DHT22;8244;50.044;9.006;2022-11-20T20:01:05;5.90;99.90
16273;DHT22;8244;50.044;9.006;2022-11-20T20:06:11;5.90;99.90
16273;DHT22;8244;50.044;9.006;2022-11-20T20:11:16;5.90;99.90
16273;DHT22;8244;50.044;9.006;2022-11-20T20:16:21;5.90;99.90
16273;DHT22;8244;50.044;9.006;2022-11-20T20:21:23;6.00;99.90
16273;DHT22;8244;50.044;9.006;2022-11-20T20:26:27;6.00;99.90
16273;DHT22;8244;50.044;9.006;2022-11-20T20:31:30;6.00;99.90
16273;DHT22;8244;50.044;9.006;2022-11-20T20:36:32;6.00;99.90
16273;DHT22;8244;50.044;9.006;2022-11-20T20:41:35;6.00;99.90
16273;DHT22;8244;50.044;9.006;2022-11-20T20:46:37;6.10;99.90
16273;DHT22;8244;50.044;9.006;2022-11-20T20:51:39;6.10;99.90
16273;DHT22;8244;50.044;9.006;2022-11-20T20:56:42;6.10;99.90
16273;DHT22;8244;50.044;9.006;2022-11-20T21:01:44;6.10;99.90
16273;DHT22;8244;50.044;9.006;2022-11-20T21:06:46;6.10;99.90
16273;DHT22;8244;50.044;9.006;2022-11-20T21:11:49;6.10;99.90
16273;DHT22;8244;50.044;9.006;2022-11-20T21:16:50;6.00;99.90
16273;DHT22;8244;50.044;9.006;2022-11-20T21:21:52;6.10;99.90
16273;DHT22;8244;50.044;9.006;2022-11-20T21:27:04;6.10;99.90
16273;DHT22;8244;50.044;9.006;2022-11-20T21:32:06;6.10;99.90
16273;DHT22;8244;50.044;9.006;2022-11-20T21:37:07;6.10;99.90
16273;DHT22;8244;50.044;9.006;2022-11-20T21:42:10;6.10;99.90
16273;DHT22;8244;50.044;9.006;2022-11-20T21:47:14;6.10;99.90
16273;DHT22;8244;50.044;9.006;2022-11-20T21:52:15;6.10;99.90
16273;DHT22;8244;50.044;9.006;2022-11-20T21:57:18;6.10;99.90
16273;DHT22;8244;50.044;9.006;2022-11-20T22:02:20;6.10;99.90
16273;DHT22;8244;50.044;9.006;2022-11-20T22:07:22;6.10;99.90
16273;DHT22;8244;50.044;9.006;2022-11-20T22:12:25;6.10;99.90
16273;DHT22;8244;50.044;9.006;2022-11-20T22:17:27;6.20;99.90
16273;DHT22;8244;50.044;9.006;2022-11-20T22:22:42;6.10;99.90
16273;DHT22;8244;50.044;9.006;2022-11-20T22:27:46;6.20;99.90
16273;DHT22;8244;50.044;9.006;2022-11-20T22:32:48;6.20;99.90
16273;DHT22;8244;50.044;9.006;2022-11-20T22:37:53;6.20;99.90
16273;DHT22;8244;50.044;9.006;2022-11-20T22:42:56;6.20;99.90
16273;DHT22;8244;50.044;9.006;2022-11-20T22:47:58;6.30;99.90
16273;DHT22;8244;50.044;9.006;2022-11-20T22:52:59;6.30;99.90
16273;DHT22;8244;50.044;9.006;2022-11-20T22:58:02;6.30;99.90
16273;DHT22;8244;50.044;9.006;2022-11-20T23:03:04;6.30;99.90
16273;DHT22;8244;50.044;9.006;2022-11-20T23:08:06;6.30;99.90
16273;DHT22;8244;50.044;9.006;2022-11-20T23:13:09;6.30;99.90
16273;DHT22;8244;50.044;9.006;2022-11-20T23:18:10;6.30;99.90
16273;DHT22;8244;50.044;9.006;2022-11-20T23:23:12;6.30;99.90
16273;DHT22;8244;50.044;9.006;2022-11-20T23:28:15;6.30;99.90
16273;DHT22;8244;50.044;9.006;2022-11-20T23:33:17;6.30;99.90
16273;DHT22;8244;50.044;9.006;2022-11-20T23:38:18;6.30;99.90
16273;DHT22;8244;50.044;9.006;2022-11-20T23:43:21;6.30;99.90
16273;DHT22;8244;50.044;9.006;2022-11-20T23:48:26;6.30;99.90
16273;DHT22;8244;50.044;9.006;2022-11-20T23:53:28;6.40;99.90
16273;DHT22;8244;50.044;9.006;2022-11-20T23:58:32;6.30;99.90
